sensor_id;sensor_type;location;lat;lon;timestamp;P1;durP1;ratioP1;P2;durP2;ratioP2
70426;SDS011;57872;55.432;37.248;2024-01-30T00:03:22;22.27;;;8.70;;
70426;SDS011;57872;55.432;37.248;2024-01-30T00:08:36;22.23;;;8.37;;
70426;SDS011;57872;55.432;37.248;2024-01-30T00:21:11;23.60;;;9.03;;
70426;SDS011;57872;55.432;37.248;2024-01-30T00:27:41;24.73;;;8.93;;
70426;SDS011;57872;55.432;37.248;2024-01-30T00:40:06;20.70;;;7.77;;
70426;SDS011;57872;55.432;37.248;2024-01-30T00:52:04;24.03;;;8.33;;
70426;SDS011;57872;55.432;37.248;2024-01-30T00:57:18;23.97;;;9.43;;
70426;SDS011;57872;55.432;37.248;2024-01-30T01:02:23;25.87;;;8.67;;
70426;SDS011;57872;55.432;37.248;2024-01-30T01:08:11;19.80;;;7.97;;
70426;SDS011;57872;55.432;37.248;2024-01-30T01:13:50;25.37;;;9.27;;
70426;SDS011;57872;55.432;37.248;2024-01-30T01:19:35;26.63;;;8.80;;
70426;SDS011;57872;55.432;37.248;2024-01-30T01:25:02;19.33;;;8.53;;
70426;SDS011;57872;55.432;37.248;2024-01-30T01:30:12;26.83;;;9.57;;
70426;SDS011;57872;55.432;37.248;2024-01-30T01:36:20;24.10;;;9.20;;
70426;SDS011;57872;55.432;37.248;2024-01-30T01:42:18;23.00;;;9.07;;
70426;SDS011;57872;55.432;37.248;2024-01-30T01:47:24;23.50;;;8.53;;
70426;SDS011;57872;55.432;37.248;2024-01-30T01:52:32;24.27;;;9.60;;
70426;SDS011;57872;55.432;37.248;2024-01-30T01:57:56;28.07;;;9.40;;
70426;SDS011;57872;55.432;37.248;2024-01-30T02:03:55;24.70;;;9.27;;
70426;SDS011;57872;55.432;37.248;2024-01-30T02:16:17;21.25;;;8.00;;
70426;SDS011;57872;55.432;37.248;2024-01-30T02:27:50;22.63;;;9.30;;
70426;SDS011;57872;55.432;37.248;2024-01-30T02:38:49;25.13;;;8.37;;
70426;SDS011;57872;55.432;37.248;2024-01-30T02:49:57;25.37;;;9.40;;
70426;SDS011;57872;55.432;37.248;2024-01-30T02:55:16;24.07;;;9.50;;
70426;SDS011;57872;55.432;37.248;2024-01-30T03:01:27;26.00;;;10.03;;
70426;SDS011;57872;55.432;37.248;2024-01-30T03:06:28;23.07;;;8.83;;
70426;SDS011;57872;55.432;37.248;2024-01-30T03:11:37;23.20;;;8.67;;
70426;SDS011;57872;55.432;37.248;2024-01-30T03:17:04;21.40;;;8.73;;
70426;SDS011;57872;55.432;37.248;2024-01-30T03:22:05;18.30;;;7.57;;
70426;SDS011;57872;55.432;37.248;2024-01-30T03:27:10;20.90;;;8.53;;
70426;SDS011;57872;55.432;37.248;2024-01-30T03:32:12;28.37;;;10.27;;
70426;SDS011;57872;55.432;37.248;2024-01-30T03:37:13;23.10;;;9.50;;
70426;SDS011;57872;55.432;37.248;2024-01-30T03:42:17;20.00;;;7.90;;
70426;SDS011;57872;55.432;37.248;2024-01-30T03:47:29;21.57;;;8.40;;
70426;SDS011;57872;55.432;37.248;2024-01-30T03:52:38;18.80;;;7.93;;
70426;SDS011;57872;55.432;37.248;2024-01-30T03:57:39;19.23;;;7.60;;
70426;SDS011;57872;55.432;37.248;2024-01-30T04:21:20;16.70;;;7.27;;
70426;SDS011;57872;55.432;37.248;2024-01-30T04:26:42;16.83;;;7.07;;
70426;SDS011;57872;55.432;37.248;2024-01-30T04:31:43;18.87;;;7.30;;
70426;SDS011;57872;55.432;37.248;2024-01-30T04:36:46;20.87;;;8.30;;
70426;SDS011;57872;55.432;37.248;2024-01-30T04:42:13;20.42;;;7.95;;
70426;SDS011;57872;55.432;37.248;2024-01-30T04:47:14;15.17;;;6.07;;
70426;SDS011;57872;55.432;37.248;2024-01-30T04:52:15;19.37;;;7.77;;
70426;SDS011;57872;55.432;37.248;2024-01-30T04:57:16;15.37;;;7.17;;
70426;SDS011;57872;55.432;37.248;2024-01-30T05:02:17;18.43;;;7.80;;
70426;SDS011;57872;55.432;37.248;2024-01-30T05:07:22;15.87;;;7.83;;
70426;SDS011;57872;55.432;37.248;2024-01-30T05:12:23;16.63;;;7.33;;
70426;SDS011;57872;55.432;37.248;2024-01-30T05:17:25;17.33;;;8.03;;
70426;SDS011;57872;55.432;37.248;2024-01-30T05:22:26;19.53;;;7.57;;
70426;SDS011;57872;55.432;37.248;2024-01-30T05:27:27;18.07;;;7.50;;
70426;SDS011;57872;55.432;37.248;2024-01-30T05:32:29;15.60;;;7.23;;
70426;SDS011;57872;55.432;37.248;2024-01-30T05:37:30;18.83;;;8.83;;
70426;SDS011;57872;55.432;37.248;2024-01-30T05:42:32;18.77;;;7.80;;
70426;SDS011;57872;55.432;37.248;2024-01-30T05:47:34;17.43;;;8.13;;
70426;SDS011;57872;55.432;37.248;2024-01-30T05:52:35;15.30;;;6.33;;
70426;SDS011;57872;55.432;37.248;2024-01-30T05:57:37;15.50;;;7.47;;
70426;SDS011;57872;55.432;37.248;2024-01-30T06:02:39;16.37;;;7.50;;
70426;SDS011;57872;55.432;37.248;2024-01-30T06:07:40;16.27;;;6.93;;
70426;SDS011;57872;55.432;37.248;2024-01-30T06:12:41;17.90;;;7.83;;
70426;SDS011;57872;55.432;37.248;2024-01-30T06:17:42;14.10;;;6.87;;
70426;SDS011;57872;55.432;37.248;2024-01-30T06:22:44;16.83;;;7.33;;
70426;SDS011;57872;55.432;37.248;2024-01-30T06:27:45;13.73;;;6.87;;
70426;SDS011;57872;55.432;37.248;2024-01-30T06:33:24;15.27;;;6.90;;
70426;SDS011;57872;55.432;37.248;2024-01-30T06:39:11;14.63;;;6.50;;
70426;SDS011;57872;55.432;37.248;2024-01-30T06:44:42;14.83;;;7.00;;
70426;SDS011;57872;55.432;37.248;2024-01-30T06:49:51;16.87;;;7.43;;
70426;SDS011;57872;55.432;37.248;2024-01-30T06:55:13;13.70;;;7.07;;
70426;SDS011;57872;55.432;37.248;2024-01-30T07:06:29;18.23;;;6.87;;
70426;SDS011;57872;55.432;37.248;2024-01-30T07:11:36;14.40;;;6.77;;
70426;SDS011;57872;55.432;37.248;2024-01-30T07:16:40;15.67;;;6.67;;
70426;SDS011;57872;55.432;37.248;2024-01-30T07:21:53;17.87;;;7.10;;
70426;SDS011;57872;55.432;37.248;2024-01-30T07:27:29;14.97;;;6.47;;
70426;SDS011;57872;55.432;37.248;2024-01-30T07:32:46;18.70;;;7.50;;
70426;SDS011;57872;55.432;37.248;2024-01-30T07:38:08;16.03;;;7.57;;
70426;SDS011;57872;55.432;37.248;2024-01-30T07:43:53;17.20;;;7.10;;
70426;SDS011;57872;55.432;37.248;2024-01-30T07:49:03;14.00;;;6.93;;
70426;SDS011;57872;55.432;37.248;2024-01-30T08:00:36;17.50;;;7.07;;
70426;SDS011;57872;55.432;37.248;2024-01-30T08:05:56;14.70;;;7.07;;
70426;SDS011;57872;55.432;37.248;2024-01-30T08:11:53;17.63;;;7.77;;
70426;SDS011;57872;55.432;37.248;2024-01-30T08:29:02;20.20;;;7.47;;
70426;SDS011;57872;55.432;37.248;2024-01-30T08:34:21;16.35;;;7.05;;
70426;SDS011;57872;55.432;37.248;2024-01-30T08:39:43;14.73;;;6.87;;
70426;SDS011;57872;55.432;37.248;2024-01-30T08:50:32;16.27;;;7.53;;
70426;SDS011;57872;55.432;37.248;2024-01-30T09:07:02;16.53;;;7.20;;
70426;SDS011;57872;55.432;37.248;2024-01-30T09:12:44;22.27;;;8.33;;
70426;SDS011;57872;55.432;37.248;2024-01-30T09:18:07;17.20;;;7.80;;
70426;SDS011;57872;55.432;37.248;2024-01-30T09:23:11;18.27;;;5.47;;
70426;SDS011;57872;55.432;37.248;2024-01-30T09:28:19;14.87;;;7.10;;
70426;SDS011;57872;55.432;37.248;2024-01-30T09:33:32;20.70;;;8.30;;
70426;SDS011;57872;55.432;37.248;2024-01-30T09:38:37;21.10;;;8.60;;
70426;SDS011;57872;55.432;37.248;2024-01-30T09:43:42;18.17;;;8.17;;
70426;SDS011;57872;55.432;37.248;2024-01-30T09:48:56;23.92;;;8.40;;
70426;SDS011;57872;55.432;37.248;2024-01-30T09:54:04;17.33;;;7.90;;
70426;SDS011;57872;55.432;37.248;2024-01-30T10:04:56;22.97;;;9.00;;
70426;SDS011;57872;55.432;37.248;2024-01-30T10:10:12;17.13;;;8.40;;
70426;SDS011;57872;55.432;37.248;2024-01-30T10:15:23;18.33;;;9.17;;
70426;SDS011;57872;55.432;37.248;2024-01-30T10:20:38;21.17;;;9.27;;
70426;SDS011;57872;55.432;37.248;2024-01-30T10:25:42;17.30;;;8.07;;
70426;SDS011;57872;55.432;37.248;2024-01-30T10:31:09;18.93;;;8.70;;
70426;SDS011;57872;55.432;37.248;2024-01-30T10:36:17;23.93;;;8.87;;
70426;SDS011;57872;55.432;37.248;2024-01-30T10:41:19;18.50;;;8.73;;
70426;SDS011;57872;55.432;37.248;2024-01-30T10:46:29;19.90;;;8.63;;
70426;SDS011;57872;55.432;37.248;2024-01-30T10:51:37;20.60;;;9.53;;
70426;SDS011;57872;55.432;37.248;2024-01-30T10:56:39;19.23;;;9.17;;
70426;SDS011;57872;55.432;37.248;2024-01-30T11:01:53;22.87;;;8.80;;
70426;SDS011;57872;55.432;37.248;2024-01-30T11:12:24;21.00;;;8.13;;
70426;SDS011;57872;55.432;37.248;2024-01-30T11:17:39;17.77;;;8.27;;
70426;SDS011;57872;55.432;37.248;2024-01-30T11:22:50;19.37;;;7.63;;
70426;SDS011;57872;55.432;37.248;2024-01-30T11:27:55;21.37;;;9.53;;
70426;SDS011;57872;55.432;37.248;2024-01-30T11:33:12;20.37;;;9.17;;
70426;SDS011;57872;55.432;37.248;2024-01-30T11:38:17;18.50;;;8.67;;
70426;SDS011;57872;55.432;37.248;2024-01-30T11:43:18;19.73;;;8.50;;
70426;SDS011;57872;55.432;37.248;2024-01-30T11:48:19;20.20;;;9.03;;
70426;SDS011;57872;55.432;37.248;2024-01-30T11:53:21;21.63;;;9.97;;
70426;SDS011;57872;55.432;37.248;2024-01-30T11:58:41;27.13;;;10.20;;
70426;SDS011;57872;55.432;37.248;2024-01-30T12:03:52;20.83;;;8.60;;
70426;SDS011;57872;55.432;37.248;2024-01-30T12:09:06;18.70;;;8.30;;
70426;SDS011;57872;55.432;37.248;2024-01-30T12:14:21;21.80;;;8.53;;
70426;SDS011;57872;55.432;37.248;2024-01-30T12:19:24;21.40;;;8.93;;
70426;SDS011;57872;55.432;37.248;2024-01-30T12:24:26;21.40;;;8.60;;
70426;SDS011;57872;55.432;37.248;2024-01-30T12:29:31;19.60;;;8.13;;
70426;SDS011;57872;55.432;37.248;2024-01-30T12:34:33;18.67;;;8.07;;
70426;SDS011;57872;55.432;37.248;2024-01-30T12:39:35;20.07;;;9.80;;
70426;SDS011;57872;55.432;37.248;2024-01-30T12:44:36;21.30;;;8.57;;
70426;SDS011;57872;55.432;37.248;2024-01-30T12:49:37;21.07;;;8.73;;
70426;SDS011;57872;55.432;37.248;2024-01-30T12:54:39;20.57;;;8.57;;
70426;SDS011;57872;55.432;37.248;2024-01-30T12:59:49;20.50;;;7.57;;
70426;SDS011;57872;55.432;37.248;2024-01-30T13:04:53;19.43;;;9.33;;
70426;SDS011;57872;55.432;37.248;2024-01-30T13:10:02;17.97;;;8.67;;
70426;SDS011;57872;55.432;37.248;2024-01-30T13:15:06;23.73;;;8.87;;
70426;SDS011;57872;55.432;37.248;2024-01-30T13:25:12;19.42;;;8.15;;
70426;SDS011;57872;55.432;37.248;2024-01-30T13:30:17;18.17;;;8.38;;
70426;SDS011;57872;55.432;37.248;2024-01-30T13:35:19;21.13;;;8.73;;
70426;SDS011;57872;55.432;37.248;2024-01-30T13:45:24;20.30;;;9.20;;
70426;SDS011;57872;55.432;37.248;2024-01-30T13:50:25;21.97;;;10.87;;
70426;SDS011;57872;55.432;37.248;2024-01-30T13:55:27;19.13;;;8.33;;
70426;SDS011;57872;55.432;37.248;2024-01-30T14:00:28;23.57;;;8.50;;
70426;SDS011;57872;55.432;37.248;2024-01-30T14:05:29;22.07;;;9.53;;
70426;SDS011;57872;55.432;37.248;2024-01-30T14:10:31;25.43;;;10.37;;
70426;SDS011;57872;55.432;37.248;2024-01-30T14:15:32;23.90;;;9.50;;
70426;SDS011;57872;55.432;37.248;2024-01-30T14:20:35;22.58;;;9.75;;
70426;SDS011;57872;55.432;37.248;2024-01-30T14:25:36;20.33;;;9.20;;
70426;SDS011;57872;55.432;37.248;2024-01-30T14:30:38;23.03;;;9.90;;
70426;SDS011;57872;55.432;37.248;2024-01-30T14:35:39;23.40;;;9.23;;
70426;SDS011;57872;55.432;37.248;2024-01-30T14:40:41;23.43;;;9.60;;
70426;SDS011;57872;55.432;37.248;2024-01-30T14:45:42;22.47;;;10.00;;
70426;SDS011;57872;55.432;37.248;2024-01-30T14:50:44;19.80;;;9.20;;
70426;SDS011;57872;55.432;37.248;2024-01-30T14:55:45;23.03;;;8.80;;
70426;SDS011;57872;55.432;37.248;2024-01-30T15:00:46;26.63;;;9.77;;
70426;SDS011;57872;55.432;37.248;2024-01-30T15:05:48;22.93;;;9.10;;
70426;SDS011;57872;55.432;37.248;2024-01-30T15:10:51;21.93;;;8.30;;
70426;SDS011;57872;55.432;37.248;2024-01-30T15:16:02;22.70;;;9.47;;
70426;SDS011;57872;55.432;37.248;2024-01-30T15:21:06;26.23;;;10.37;;
70426;SDS011;57872;55.432;37.248;2024-01-30T15:26:07;26.27;;;9.67;;
70426;SDS011;57872;55.432;37.248;2024-01-30T15:31:08;20.17;;;9.13;;
70426;SDS011;57872;55.432;37.248;2024-01-30T15:36:10;21.20;;;10.10;;
70426;SDS011;57872;55.432;37.248;2024-01-30T15:47:03;22.93;;;9.70;;
70426;SDS011;57872;55.432;37.248;2024-01-30T15:52:05;25.87;;;10.73;;
70426;SDS011;57872;55.432;37.248;2024-01-30T15:57:07;25.77;;;10.67;;
70426;SDS011;57872;55.432;37.248;2024-01-30T16:02:08;27.87;;;10.70;;
70426;SDS011;57872;55.432;37.248;2024-01-30T16:07:10;24.90;;;9.90;;
70426;SDS011;57872;55.432;37.248;2024-01-30T16:12:11;22.73;;;9.97;;
70426;SDS011;57872;55.432;37.248;2024-01-30T16:17:12;28.50;;;10.80;;
70426;SDS011;57872;55.432;37.248;2024-01-30T16:22:13;25.00;;;10.43;;
70426;SDS011;57872;55.432;37.248;2024-01-30T16:27:15;23.70;;;10.53;;
70426;SDS011;57872;55.432;37.248;2024-01-30T16:32:16;22.90;;;10.17;;
70426;SDS011;57872;55.432;37.248;2024-01-30T16:37:17;28.70;;;11.07;;
70426;SDS011;57872;55.432;37.248;2024-01-30T16:42:18;30.70;;;13.23;;
70426;SDS011;57872;55.432;37.248;2024-01-30T16:47:20;26.57;;;11.37;;
70426;SDS011;57872;55.432;37.248;2024-01-30T16:52:21;29.07;;;10.40;;
70426;SDS011;57872;55.432;37.248;2024-01-30T16:57:23;27.40;;;12.00;;
70426;SDS011;57872;55.432;37.248;2024-01-30T17:02:29;26.13;;;11.17;;
70426;SDS011;57872;55.432;37.248;2024-01-30T17:07:36;25.37;;;11.03;;
70426;SDS011;57872;55.432;37.248;2024-01-30T17:18:25;29.33;;;10.60;;
70426;SDS011;57872;55.432;37.248;2024-01-30T17:24:23;25.43;;;10.67;;
70426;SDS011;57872;55.432;37.248;2024-01-30T17:29:25;26.70;;;10.77;;
70426;SDS011;57872;55.432;37.248;2024-01-30T17:34:26;28.40;;;11.07;;
70426;SDS011;57872;55.432;37.248;2024-01-30T17:39:36;28.03;;;11.57;;
70426;SDS011;57872;55.432;37.248;2024-01-30T17:45:04;28.20;;;12.07;;
70426;SDS011;57872;55.432;37.248;2024-01-30T17:50:07;25.87;;;10.07;;
70426;SDS011;57872;55.432;37.248;2024-01-30T17:55:08;25.23;;;10.30;;
70426;SDS011;57872;55.432;37.248;2024-01-30T18:00:10;24.10;;;10.88;;
70426;SDS011;57872;55.432;37.248;2024-01-30T18:05:12;27.20;;;11.27;;
70426;SDS011;57872;55.432;37.248;2024-01-30T18:15:31;31.70;;;12.67;;
70426;SDS011;57872;55.432;37.248;2024-01-30T18:20:33;33.73;;;12.50;;
70426;SDS011;57872;55.432;37.248;2024-01-30T18:25:34;30.77;;;13.07;;
70426;SDS011;57872;55.432;37.248;2024-01-30T18:30:35;30.30;;;11.97;;
70426;SDS011;57872;55.432;37.248;2024-01-30T18:35:36;25.77;;;11.87;;
70426;SDS011;57872;55.432;37.248;2024-01-30T18:40:38;27.10;;;12.07;;
70426;SDS011;57872;55.432;37.248;2024-01-30T18:45:42;32.97;;;12.53;;
70426;SDS011;57872;55.432;37.248;2024-01-30T18:50:43;31.23;;;13.30;;
70426;SDS011;57872;55.432;37.248;2024-01-30T18:55:44;30.63;;;12.87;;
70426;SDS011;57872;55.432;37.248;2024-01-30T19:00:51;30.90;;;13.20;;
70426;SDS011;57872;55.432;37.248;2024-01-30T19:05:52;28.23;;;12.67;;
70426;SDS011;57872;55.432;37.248;2024-01-30T19:10:53;30.73;;;12.57;;
70426;SDS011;57872;55.432;37.248;2024-01-30T19:15:56;33.10;;;13.60;;
70426;SDS011;57872;55.432;37.248;2024-01-30T19:20:57;35.70;;;13.57;;
70426;SDS011;57872;55.432;37.248;2024-01-30T19:25:58;30.60;;;13.45;;
70426;SDS011;57872;55.432;37.248;2024-01-30T19:30:59;33.50;;;13.07;;
70426;SDS011;57872;55.432;37.248;2024-01-30T19:36:01;25.67;;;12.27;;
70426;SDS011;57872;55.432;37.248;2024-01-30T19:41:03;28.40;;;12.40;;
70426;SDS011;57872;55.432;37.248;2024-01-30T19:46:06;33.05;;;12.68;;
70426;SDS011;57872;55.432;37.248;2024-01-30T19:51:09;32.40;;;13.27;;
70426;SDS011;57872;55.432;37.248;2024-01-30T19:56:31;27.10;;;12.10;;
70426;SDS011;57872;55.432;37.248;2024-01-30T20:01:51;32.03;;;12.43;;
70426;SDS011;57872;55.432;37.248;2024-01-30T20:06:52;30.33;;;12.20;;
70426;SDS011;57872;55.432;37.248;2024-01-30T20:11:54;33.63;;;13.13;;
70426;SDS011;57872;55.432;37.248;2024-01-30T20:16:55;29.23;;;11.50;;
70426;SDS011;57872;55.432;37.248;2024-01-30T20:21:57;27.37;;;12.17;;
70426;SDS011;57872;55.432;37.248;2024-01-30T20:27:00;32.83;;;12.87;;
70426;SDS011;57872;55.432;37.248;2024-01-30T20:32:02;31.20;;;12.33;;
70426;SDS011;57872;55.432;37.248;2024-01-30T20:37:04;34.03;;;13.83;;
70426;SDS011;57872;55.432;37.248;2024-01-30T20:42:05;26.77;;;12.03;;
70426;SDS011;57872;55.432;37.248;2024-01-30T20:47:16;27.37;;;11.47;;
70426;SDS011;57872;55.432;37.248;2024-01-30T20:52:18;32.77;;;13.00;;
70426;SDS011;57872;55.432;37.248;2024-01-30T20:57:21;34.20;;;12.70;;
70426;SDS011;57872;55.432;37.248;2024-01-30T21:07:23;28.37;;;11.77;;
70426;SDS011;57872;55.432;37.248;2024-01-30T21:12:25;34.67;;;12.10;;
70426;SDS011;57872;55.432;37.248;2024-01-30T21:17:33;31.07;;;12.50;;
70426;SDS011;57872;55.432;37.248;2024-01-30T21:22:35;29.00;;;11.47;;
70426;SDS011;57872;55.432;37.248;2024-01-30T21:27:36;33.67;;;11.63;;
70426;SDS011;57872;55.432;37.248;2024-01-30T21:32:39;30.00;;;11.63;;
70426;SDS011;57872;55.432;37.248;2024-01-30T21:37:40;29.87;;;11.17;;
70426;SDS011;57872;55.432;37.248;2024-01-30T21:42:41;29.80;;;11.33;;
70426;SDS011;57872;55.432;37.248;2024-01-30T21:47:42;25.93;;;10.43;;
70426;SDS011;57872;55.432;37.248;2024-01-30T21:52:44;29.80;;;12.60;;
70426;SDS011;57872;55.432;37.248;2024-01-30T21:57:45;26.67;;;10.17;;
70426;SDS011;57872;55.432;37.248;2024-01-30T22:02:46;26.33;;;10.73;;
70426;SDS011;57872;55.432;37.248;2024-01-30T22:07:50;29.10;;;11.47;;
70426;SDS011;57872;55.432;37.248;2024-01-30T22:12:52;31.07;;;10.83;;
70426;SDS011;57872;55.432;37.248;2024-01-30T22:17:53;29.83;;;10.83;;
70426;SDS011;57872;55.432;37.248;2024-01-30T22:22:54;28.87;;;12.37;;
70426;SDS011;57872;55.432;37.248;2024-01-30T22:27:55;33.80;;;10.67;;
70426;SDS011;57872;55.432;37.248;2024-01-30T22:32:57;24.13;;;10.17;;
70426;SDS011;57872;55.432;37.248;2024-01-30T22:37:58;25.37;;;10.50;;
70426;SDS011;57872;55.432;37.248;2024-01-30T22:42:59;27.97;;;10.90;;
70426;SDS011;57872;55.432;37.248;2024-01-30T22:48:01;28.03;;;10.57;;
70426;SDS011;57872;55.432;37.248;2024-01-30T22:53:02;30.70;;;12.47;;
70426;SDS011;57872;55.432;37.248;2024-01-30T22:58:04;30.73;;;11.90;;
70426;SDS011;57872;55.432;37.248;2024-01-30T23:03:05;28.57;;;11.73;;
70426;SDS011;57872;55.432;37.248;2024-01-30T23:08:09;28.97;;;11.60;;
70426;SDS011;57872;55.432;37.248;2024-01-30T23:13:18;36.40;;;13.03;;
70426;SDS011;57872;55.432;37.248;2024-01-30T23:18:23;27.93;;;11.20;;
70426;SDS011;57872;55.432;37.248;2024-01-30T23:23:24;30.40;;;12.17;;
70426;SDS011;57872;55.432;37.248;2024-01-30T23:28:26;34.80;;;12.57;;
70426;SDS011;57872;55.432;37.248;2024-01-30T23:33:53;33.97;;;13.70;;
70426;SDS011;57872;55.432;37.248;2024-01-30T23:38:59;29.63;;;11.50;;
70426;SDS011;57872;55.432;37.248;2024-01-30T23:44:03;25.07;;;10.97;;
70426;SDS011;57872;55.432;37.248;2024-01-30T23:49:06;27.90;;;11.40;;
70426;SDS011;57872;55.432;37.248;2024-01-30T23:54:07;26.67;;;11.10;;
70426;SDS011;57872;55.432;37.248;2024-01-30T23:59:09;31.00;;;12.27;;
